This is the latest recevied weather packets stored in our database for station/object S50APT-10. If no packets are shown the sender has not sent any weather packets the latest 10 day(s).
| Time | Temp. | Humidity | Pressure | Rain* | Wind** | Luminosity | Snow |
|---|---|---|---|---|---|---|---|
| 1777353897 | 13.33° C | 47% | 1021.6 hPa | - | - | - | - |
| 1777352995 | 11.67° C | 52% | 1021.6 hPa | - | - | - | - |
| 1777352094 | 11.67° C | 51% | 1021.4 hPa | - | - | - | - |
| 1777351193 | 11.67° C | 50% | 1021.4 hPa | - | - | - | - |
| 1777350293 | 10.56° C | 52% | 1021.2 hPa | - | - | - | - |
| 1777349392 | 11.67° C | 49% | 1021.2 hPa | - | - | - | - |
| 1777348492 | 11.11° C | 49% | 1021.2 hPa | - | - | - | - |
| 1777347591 | 11.11° C | 49% | 1021.2 hPa | - | - | - | - |
| 1777346721 | 11.11° C | 49% | 1021.1 hPa | - | - | - | - |
| 1777346690 | 11.11° C | 49% | 1021.1 hPa | - | - | - | - |
| 1777345789 | 11.11° C | 50% | 1021.2 hPa | - | - | - | - |
| 1777344918 | 11.11° C | 50% | 1021.2 hPa | - | - | - | - |
| 1777344887 | 11.11° C | 50% | 1021.2 hPa | - | - | - | - |
| 1777343085 | 11.11° C | 50% | 1021.3 hPa | - | - | - | - |
| 1777341284 | 11.11° C | 49% | 1021.3 hPa | - | - | - | - |
| 1777339483 | 11.11° C | 49% | 1021.4 hPa | - | - | - | - |
| 1777338580 | 11.11° C | 48% | 1021.3 hPa | - | - | - | - |
| 1777337680 | 11.67° C | 46% | 1021.2 hPa | - | - | - | - |
| 1777335879 | 11.67° C | 47% | 1021.4 hPa | - | - | - | - |
| 1777334978 | 11.67° C | 47% | 1021.4 hPa | - | - | - | - |
* Rain since midnight (hover to see other rain measurements)
** Current wind speed in m/s (hover to see current wind gust speed)